sensor_id;sensor_type;location;lat;lon;timestamp;temperature;humidity
9215;DHT22;4642;51.364;6.788;2023-04-15T00:02:17;6.10;99.90
9215;DHT22;4642;51.364;6.788;2023-04-15T00:04:47;6.10;99.90
9215;DHT22;4642;51.364;6.788;2023-04-15T00:07:13;6.00;99.90
9215;DHT22;4642;51.364;6.788;2023-04-15T00:09:43;6.10;99.90
9215;DHT22;4642;51.364;6.788;2023-04-15T00:12:09;6.00;99.90
9215;DHT22;4642;51.364;6.788;2023-04-15T00:14:35;6.00;99.90
9215;DHT22;4642;51.364;6.788;2023-04-15T00:17:01;6.00;99.90
9215;DHT22;4642;51.364;6.788;2023-04-15T00:19:28;6.00;99.90
9215;DHT22;4642;51.364;6.788;2023-04-15T00:21:53;5.90;99.90
9215;DHT22;4642;51.364;6.788;2023-04-15T00:24:19;5.90;99.90
9215;DHT22;4642;51.364;6.788;2023-04-15T00:26:45;5.90;99.90
9215;DHT22;4642;51.364;6.788;2023-04-15T00:29:11;5.90;99.90
9215;DHT22;4642;51.364;6.788;2023-04-15T00:31:36;5.80;99.90
9215;DHT22;4642;51.364;6.788;2023-04-15T00:34:02;5.90;99.90
9215;DHT22;4642;51.364;6.788;2023-04-15T00:36:28;5.80;99.90
9215;DHT22;4642;51.364;6.788;2023-04-15T00:38:53;5.80;99.90
9215;DHT22;4642;51.364;6.788;2023-04-15T00:41:19;5.80;99.90
9215;DHT22;4642;51.364;6.788;2023-04-15T00:43:45;5.80;99.90
9215;DHT22;4642;51.364;6.788;2023-04-15T00:46:13;5.80;99.90
9215;DHT22;4642;51.364;6.788;2023-04-15T00:48:40;5.80;99.90
9215;DHT22;4642;51.364;6.788;2023-04-15T00:51:06;5.70;99.90
9215;DHT22;4642;51.364;6.788;2023-04-15T00:53:32;5.70;99.90
9215;DHT22;4642;51.364;6.788;2023-04-15T00:55:58;5.70;99.90
9215;DHT22;4642;51.364;6.788;2023-04-15T00:58:24;5.70;99.90
9215;DHT22;4642;51.364;6.788;2023-04-15T01:00:50;5.70;99.90
9215;DHT22;4642;51.364;6.788;2023-04-15T01:03:18;5.70;99.90
9215;DHT22;4642;51.364;6.788;2023-04-15T01:05:44;5.70;99.90
9215;DHT22;4642;51.364;6.788;2023-04-15T01:08:10;5.70;99.90
9215;DHT22;4642;51.364;6.788;2023-04-15T01:10:36;5.60;99.90
9215;DHT22;4642;51.364;6.788;2023-04-15T01:13:02;5.60;99.90
9215;DHT22;4642;51.364;6.788;2023-04-15T01:15:28;5.60;99.90
9215;DHT22;4642;51.364;6.788;2023-04-15T01:17:53;5.60;99.90
9215;DHT22;4642;51.364;6.788;2023-04-15T01:20:19;5.50;99.90
9215;DHT22;4642;51.364;6.788;2023-04-15T01:22:45;5.50;99.90
9215;DHT22;4642;51.364;6.788;2023-04-15T01:25:13;5.50;99.90
9215;DHT22;4642;51.364;6.788;2023-04-15T01:27:42;5.50;99.90
9215;DHT22;4642;51.364;6.788;2023-04-15T01:30:08;5.50;99.90
9215;DHT22;4642;51.364;6.788;2023-04-15T01:32:35;5.50;99.90
9215;DHT22;4642;51.364;6.788;2023-04-15T01:35:00;5.40;99.90
9215;DHT22;4642;51.364;6.788;2023-04-15T01:37:26;5.40;99.90
9215;DHT22;4642;51.364;6.788;2023-04-15T01:39:52;5.40;99.90
9215;DHT22;4642;51.364;6.788;2023-04-15T01:42:17;5.40;99.90
9215;DHT22;4642;51.364;6.788;2023-04-15T01:44:43;5.40;99.90
9215;DHT22;4642;51.364;6.788;2023-04-15T01:47:08;5.30;99.90
9215;DHT22;4642;51.364;6.788;2023-04-15T01:49:34;5.30;99.90
9215;DHT22;4642;51.364;6.788;2023-04-15T01:52:00;5.20;99.90
9215;DHT22;4642;51.364;6.788;2023-04-15T01:54:25;5.20;99.90
9215;DHT22;4642;51.364;6.788;2023-04-15T01:56:52;5.20;99.90
9215;DHT22;4642;51.364;6.788;2023-04-15T01:59:17;5.20;99.90
9215;DHT22;4642;51.364;6.788;2023-04-15T02:01:43;5.10;99.90
9215;DHT22;4642;51.364;6.788;2023-04-15T02:04:09;5.10;99.90
9215;DHT22;4642;51.364;6.788;2023-04-15T02:06:43;5.10;99.90
9215;DHT22;4642;51.364;6.788;2023-04-15T02:09:09;5.10;99.90
9215;DHT22;4642;51.364;6.788;2023-04-15T02:11:35;5.00;99.90
9215;DHT22;4642;51.364;6.788;2023-04-15T02:14:04;5.00;99.90
9215;DHT22;4642;51.364;6.788;2023-04-15T02:16:31;5.00;99.90
9215;DHT22;4642;51.364;6.788;2023-04-15T02:18:58;5.00;99.90
9215;DHT22;4642;51.364;6.788;2023-04-15T02:21:25;5.00;99.90
9215;DHT22;4642;51.364;6.788;2023-04-15T02:23:51;5.00;99.90
9215;DHT22;4642;51.364;6.788;2023-04-15T02:26:18;5.00;99.90
9215;DHT22;4642;51.364;6.788;2023-04-15T02:28:43;5.00;99.90
9215;DHT22;4642;51.364;6.788;2023-04-15T02:31:09;5.00;99.90
9215;DHT22;4642;51.364;6.788;2023-04-15T02:33:35;5.00;99.90
9215;DHT22;4642;51.364;6.788;2023-04-15T02:36:02;4.90;99.90
9215;DHT22;4642;51.364;6.788;2023-04-15T02:38:28;4.90;99.90
9215;DHT22;4642;51.364;6.788;2023-04-15T02:40:53;4.90;99.90
9215;DHT22;4642;51.364;6.788;2023-04-15T02:43:19;4.90;99.90
9215;DHT22;4642;51.364;6.788;2023-04-15T02:45:45;4.90;99.90
9215;DHT22;4642;51.364;6.788;2023-04-15T02:48:11;4.90;99.90
9215;DHT22;4642;51.364;6.788;2023-04-15T02:50:37;4.90;99.90
9215;DHT22;4642;51.364;6.788;2023-04-15T02:53:06;4.90;99.90
9215;DHT22;4642;51.364;6.788;2023-04-15T02:55:31;4.90;99.90
9215;DHT22;4642;51.364;6.788;2023-04-15T02:57:57;4.90;99.90
9215;DHT22;4642;51.364;6.788;2023-04-15T03:00:24;4.90;99.90
9215;DHT22;4642;51.364;6.788;2023-04-15T03:02:51;4.90;99.90
9215;DHT22;4642;51.364;6.788;2023-04-15T03:05:21;4.90;99.90
9215;DHT22;4642;51.364;6.788;2023-04-15T03:07:50;4.80;99.90
9215;DHT22;4642;51.364;6.788;2023-04-15T03:10:16;4.80;99.90
9215;DHT22;4642;51.364;6.788;2023-04-15T03:12:41;4.80;99.90
9215;DHT22;4642;51.364;6.788;2023-04-15T03:15:07;4.80;99.90
9215;DHT22;4642;51.364;6.788;2023-04-15T03:17:33;4.80;99.90
9215;DHT22;4642;51.364;6.788;2023-04-15T03:20:01;4.80;99.90
9215;DHT22;4642;51.364;6.788;2023-04-15T03:22:28;4.80;99.90
9215;DHT22;4642;51.364;6.788;2023-04-15T03:24:53;4.80;99.90
9215;DHT22;4642;51.364;6.788;2023-04-15T03:27:19;4.70;99.90
9215;DHT22;4642;51.364;6.788;2023-04-15T03:29:44;4.80;99.90
9215;DHT22;4642;51.364;6.788;2023-04-15T03:32:10;4.70;99.90
9215;DHT22;4642;51.364;6.788;2023-04-15T03:34:37;4.70;99.90
9215;DHT22;4642;51.364;6.788;2023-04-15T03:37:02;4.70;99.90
9215;DHT22;4642;51.364;6.788;2023-04-15T03:39:28;4.70;99.90
9215;DHT22;4642;51.364;6.788;2023-04-15T03:41:53;4.60;99.90
9215;DHT22;4642;51.364;6.788;2023-04-15T03:44:19;4.60;99.90
9215;DHT22;4642;51.364;6.788;2023-04-15T03:46:44;4.60;99.90
9215;DHT22;4642;51.364;6.788;2023-04-15T03:49:10;4.60;99.90
9215;DHT22;4642;51.364;6.788;2023-04-15T03:51:35;4.70;99.90
9215;DHT22;4642;51.364;6.788;2023-04-15T03:54:01;4.70;99.90
9215;DHT22;4642;51.364;6.788;2023-04-15T03:56:26;4.70;99.90
9215;DHT22;4642;51.364;6.788;2023-04-15T03:58:52;4.70;99.90
9215;DHT22;4642;51.364;6.788;2023-04-15T04:01:18;4.70;99.90
9215;DHT22;4642;51.364;6.788;2023-04-15T04:03:43;4.80;99.90
9215;DHT22;4642;51.364;6.788;2023-04-15T04:06:09;4.80;99.90
9215;DHT22;4642;51.364;6.788;2023-04-15T04:08:36;4.80;99.90
9215;DHT22;4642;51.364;6.788;2023-04-15T04:11:02;4.80;99.90
9215;DHT22;4642;51.364;6.788;2023-04-15T04:13:28;4.80;99.90
9215;DHT22;4642;51.364;6.788;2023-04-15T04:15:53;4.80;99.90
9215;DHT22;4642;51.364;6.788;2023-04-15T04:18:19;4.80;99.90
9215;DHT22;4642;51.364;6.788;2023-04-15T04:20:45;4.80;99.90
9215;DHT22;4642;51.364;6.788;2023-04-15T04:23:11;4.80;99.90
9215;DHT22;4642;51.364;6.788;2023-04-15T04:25:36;4.80;99.90
9215;DHT22;4642;51.364;6.788;2023-04-15T04:28:02;4.90;99.90
9215;DHT22;4642;51.364;6.788;2023-04-15T04:30:28;4.90;99.90
9215;DHT22;4642;51.364;6.788;2023-04-15T04:32:54;4.90;99.90
9215;DHT22;4642;51.364;6.788;2023-04-15T04:35:19;5.00;99.90
9215;DHT22;4642;51.364;6.788;2023-04-15T04:37:45;5.00;99.90
9215;DHT22;4642;51.364;6.788;2023-04-15T04:40:11;5.00;99.90
9215;DHT22;4642;51.364;6.788;2023-04-15T04:42:36;5.00;99.90
9215;DHT22;4642;51.364;6.788;2023-04-15T04:45:02;5.00;99.90
9215;DHT22;4642;51.364;6.788;2023-04-15T04:47:28;5.00;99.90
9215;DHT22;4642;51.364;6.788;2023-04-15T04:49:54;5.00;99.90
9215;DHT22;4642;51.364;6.788;2023-04-15T04:52:20;5.00;99.90
9215;DHT22;4642;51.364;6.788;2023-04-15T04:54:45;5.00;99.90
9215;DHT22;4642;51.364;6.788;2023-04-15T04:57:11;5.00;99.90
9215;DHT22;4642;51.364;6.788;2023-04-15T04:59:38;5.00;99.90
9215;DHT22;4642;51.364;6.788;2023-04-15T05:02:04;5.00;99.90
9215;DHT22;4642;51.364;6.788;2023-04-15T05:04:30;5.00;99.90
9215;DHT22;4642;51.364;6.788;2023-04-15T05:06:56;5.00;99.90
9215;DHT22;4642;51.364;6.788;2023-04-15T05:09:22;5.10;99.90
9215;DHT22;4642;51.364;6.788;2023-04-15T05:11:48;5.10;99.90
9215;DHT22;4642;51.364;6.788;2023-04-15T05:14:13;5.10;99.90
9215;DHT22;4642;51.364;6.788;2023-04-15T05:16:39;5.20;99.90
9215;DHT22;4642;51.364;6.788;2023-04-15T05:19:04;5.20;99.90
9215;DHT22;4642;51.364;6.788;2023-04-15T05:21:30;5.20;99.90
9215;DHT22;4642;51.364;6.788;2023-04-15T05:23:56;5.20;99.90
9215;DHT22;4642;51.364;6.788;2023-04-15T05:26:21;5.30;99.90
9215;DHT22;4642;51.364;6.788;2023-04-15T05:28:48;5.30;99.90
9215;DHT22;4642;51.364;6.788;2023-04-15T05:31:14;5.30;99.90
9215;DHT22;4642;51.364;6.788;2023-04-15T05:33:40;5.40;99.90
9215;DHT22;4642;51.364;6.788;2023-04-15T05:36:06;5.30;99.90
9215;DHT22;4642;51.364;6.788;2023-04-15T05:38:31;5.40;99.90
9215;DHT22;4642;51.364;6.788;2023-04-15T05:40:57;5.40;99.90
9215;DHT22;4642;51.364;6.788;2023-04-15T05:43:23;5.50;99.90
9215;DHT22;4642;51.364;6.788;2023-04-15T05:45:48;5.50;99.90
9215;DHT22;4642;51.364;6.788;2023-04-15T05:48:14;5.60;99.90
9215;DHT22;4642;51.364;6.788;2023-04-15T05:50:42;5.70;99.90
9215;DHT22;4642;51.364;6.788;2023-04-15T05:53:08;5.70;99.90
9215;DHT22;4642;51.364;6.788;2023-04-15T05:55:34;5.80;99.90
9215;DHT22;4642;51.364;6.788;2023-04-15T05:57:59;5.80;99.90
9215;DHT22;4642;51.364;6.788;2023-04-15T06:00:25;5.90;99.90
9215;DHT22;4642;51.364;6.788;2023-04-15T06:02:51;6.00;99.90
9215;DHT22;4642;51.364;6.788;2023-04-15T06:05:17;6.10;99.90
9215;DHT22;4642;51.364;6.788;2023-04-15T06:07:43;6.10;99.90
9215;DHT22;4642;51.364;6.788;2023-04-15T06:10:09;6.20;99.90
9215;DHT22;4642;51.364;6.788;2023-04-15T06:12:34;6.30;99.90
9215;DHT22;4642;51.364;6.788;2023-04-15T06:15:00;6.40;99.90
9215;DHT22;4642;51.364;6.788;2023-04-15T06:17:26;6.40;99.90
9215;DHT22;4642;51.364;6.788;2023-04-15T06:19:51;6.50;99.90
9215;DHT22;4642;51.364;6.788;2023-04-15T06:22:21;6.60;99.90
9215;DHT22;4642;51.364;6.788;2023-04-15T06:24:47;6.70;99.90
9215;DHT22;4642;51.364;6.788;2023-04-15T06:27:15;6.80;99.90
9215;DHT22;4642;51.364;6.788;2023-04-15T06:29:40;6.90;99.90
9215;DHT22;4642;51.364;6.788;2023-04-15T06:32:06;7.00;99.90
9215;DHT22;4642;51.364;6.788;2023-04-15T06:34:32;7.10;99.90
9215;DHT22;4642;51.364;6.788;2023-04-15T06:36:57;7.20;99.90
9215;DHT22;4642;51.364;6.788;2023-04-15T06:39:23;7.30;99.90
9215;DHT22;4642;51.364;6.788;2023-04-15T06:41:49;7.40;99.90
9215;DHT22;4642;51.364;6.788;2023-04-15T06:44:14;7.50;99.90
9215;DHT22;4642;51.364;6.788;2023-04-15T06:46:40;7.60;99.90
9215;DHT22;4642;51.364;6.788;2023-04-15T06:49:06;7.70;99.90
9215;DHT22;4642;51.364;6.788;2023-04-15T06:51:33;7.80;99.90
9215;DHT22;4642;51.364;6.788;2023-04-15T06:53:58;7.90;99.90
9215;DHT22;4642;51.364;6.788;2023-04-15T06:56:24;8.00;99.90
9215;DHT22;4642;51.364;6.788;2023-04-15T06:58:49;8.10;99.90
9215;DHT22;4642;51.364;6.788;2023-04-15T07:01:15;8.20;99.90
9215;DHT22;4642;51.364;6.788;2023-04-15T07:03:40;8.40;99.90
9215;DHT22;4642;51.364;6.788;2023-04-15T07:06:07;8.60;99.90
9215;DHT22;4642;51.364;6.788;2023-04-15T07:08:33;8.60;99.90
9215;DHT22;4642;51.364;6.788;2023-04-15T07:11:00;8.80;99.90
9215;DHT22;4642;51.364;6.788;2023-04-15T07:13:25;8.90;99.90
9215;DHT22;4642;51.364;6.788;2023-04-15T07:15:51;9.00;99.90
9215;DHT22;4642;51.364;6.788;2023-04-15T07:18:17;9.10;99.90
9215;DHT22;4642;51.364;6.788;2023-04-15T07:20:42;9.20;99.90
9215;DHT22;4642;51.364;6.788;2023-04-15T07:23:08;9.30;99.90
9215;DHT22;4642;51.364;6.788;2023-04-15T07:25:34;9.40;99.90
9215;DHT22;4642;51.364;6.788;2023-04-15T07:27:59;9.50;99.90
9215;DHT22;4642;51.364;6.788;2023-04-15T07:30:25;9.60;99.90
9215;DHT22;4642;51.364;6.788;2023-04-15T07:32:50;9.70;99.90
9215;DHT22;4642;51.364;6.788;2023-04-15T07:35:17;9.70;99.90
9215;DHT22;4642;51.364;6.788;2023-04-15T07:37:42;9.70;99.90
9215;DHT22;4642;51.364;6.788;2023-04-15T07:40:08;9.80;99.90
9215;DHT22;4642;51.364;6.788;2023-04-15T07:42:34;9.80;99.90
9215;DHT22;4642;51.364;6.788;2023-04-15T07:45:00;9.90;99.90
9215;DHT22;4642;51.364;6.788;2023-04-15T07:47:25;10.00;99.90
9215;DHT22;4642;51.364;6.788;2023-04-15T07:49:51;10.00;99.90
9215;DHT22;4642;51.364;6.788;2023-04-15T07:52:17;10.10;99.90
9215;DHT22;4642;51.364;6.788;2023-04-15T07:54:44;10.10;99.90
9215;DHT22;4642;51.364;6.788;2023-04-15T07:57:10;10.10;99.90
9215;DHT22;4642;51.364;6.788;2023-04-15T07:59:36;10.20;99.90
9215;DHT22;4642;51.364;6.788;2023-04-15T08:02:01;10.10;99.90
9215;DHT22;4642;51.364;6.788;2023-04-15T08:04:27;10.10;99.90
9215;DHT22;4642;51.364;6.788;2023-04-15T08:06:53;10.20;99.90
9215;DHT22;4642;51.364;6.788;2023-04-15T08:09:19;10.20;99.90
9215;DHT22;4642;51.364;6.788;2023-04-15T08:11:47;10.30;99.90
9215;DHT22;4642;51.364;6.788;2023-04-15T08:14:13;10.30;99.90
9215;DHT22;4642;51.364;6.788;2023-04-15T08:16:39;10.40;99.90
9215;DHT22;4642;51.364;6.788;2023-04-15T08:19:05;10.50;99.90
9215;DHT22;4642;51.364;6.788;2023-04-15T08:21:30;10.50;99.90
9215;DHT22;4642;51.364;6.788;2023-04-15T08:23:56;10.60;99.90
9215;DHT22;4642;51.364;6.788;2023-04-15T08:26:22;10.60;99.90
9215;DHT22;4642;51.364;6.788;2023-04-15T08:28:48;10.80;99.90
9215;DHT22;4642;51.364;6.788;2023-04-15T08:31:14;10.80;99.90
9215;DHT22;4642;51.364;6.788;2023-04-15T08:33:40;10.90;99.90
9215;DHT22;4642;51.364;6.788;2023-04-15T08:36:06;10.90;99.90
9215;DHT22;4642;51.364;6.788;2023-04-15T08:38:32;10.90;99.90
9215;DHT22;4642;51.364;6.788;2023-04-15T08:40:59;11.00;99.90
9215;DHT22;4642;51.364;6.788;2023-04-15T08:43:33;11.10;99.90
9215;DHT22;4642;51.364;6.788;2023-04-15T08:46:00;11.10;99.90
9215;DHT22;4642;51.364;6.788;2023-04-15T08:48:31;11.20;99.90
9215;DHT22;4642;51.364;6.788;2023-04-15T08:50:57;11.20;99.90
9215;DHT22;4642;51.364;6.788;2023-04-15T08:53:23;11.20;99.90
9215;DHT22;4642;51.364;6.788;2023-04-15T08:55:51;11.20;99.90
9215;DHT22;4642;51.364;6.788;2023-04-15T08:58:18;11.20;99.90
9215;DHT22;4642;51.364;6.788;2023-04-15T09:00:44;11.30;99.90
9215;DHT22;4642;51.364;6.788;2023-04-15T09:03:10;11.30;99.90
9215;DHT22;4642;51.364;6.788;2023-04-15T09:05:36;11.30;99.90
9215;DHT22;4642;51.364;6.788;2023-04-15T09:08:03;11.40;99.90
9215;DHT22;4642;51.364;6.788;2023-04-15T09:10:30;11.30;99.90
9215;DHT22;4642;51.364;6.788;2023-04-15T09:12:57;11.40;99.90
9215;DHT22;4642;51.364;6.788;2023-04-15T09:15:25;11.50;99.90
9215;DHT22;4642;51.364;6.788;2023-04-15T09:17:55;11.50;99.90
9215;DHT22;4642;51.364;6.788;2023-04-15T09:20:21;11.50;99.90
9215;DHT22;4642;51.364;6.788;2023-04-15T09:22:48;11.50;99.90
9215;DHT22;4642;51.364;6.788;2023-04-15T09:27:50;11.60;99.90
9215;DHT22;4642;51.364;6.788;2023-04-15T09:30:16;11.70;99.90
9215;DHT22;4642;51.364;6.788;2023-04-15T09:32:58;11.70;99.90
9215;DHT22;4642;51.364;6.788;2023-04-15T09:35:25;11.80;99.90
9215;DHT22;4642;51.364;6.788;2023-04-15T09:37:52;11.90;99.90
9215;DHT22;4642;51.364;6.788;2023-04-15T09:40:30;11.90;99.90
9215;DHT22;4642;51.364;6.788;2023-04-15T09:42:57;12.10;99.90
9215;DHT22;4642;51.364;6.788;2023-04-15T09:45:23;12.20;99.90
9215;DHT22;4642;51.364;6.788;2023-04-15T09:47:48;12.30;99.90
9215;DHT22;4642;51.364;6.788;2023-04-15T09:50:18;12.40;99.90
9215;DHT22;4642;51.364;6.788;2023-04-15T09:52:44;12.40;99.90
9215;DHT22;4642;51.364;6.788;2023-04-15T09:55:10;12.50;99.90
9215;DHT22;4642;51.364;6.788;2023-04-15T09:57:37;12.40;99.90
9215;DHT22;4642;51.364;6.788;2023-04-15T10:00:04;12.40;99.90
9215;DHT22;4642;51.364;6.788;2023-04-15T10:02:31;12.30;99.90
9215;DHT22;4642;51.364;6.788;2023-04-15T10:04:56;12.30;99.90
9215;DHT22;4642;51.364;6.788;2023-04-15T10:07:22;12.40;99.90
9215;DHT22;4642;51.364;6.788;2023-04-15T10:09:49;12.50;99.90
9215;DHT22;4642;51.364;6.788;2023-04-15T10:12:16;12.60;99.90
9215;DHT22;4642;51.364;6.788;2023-04-15T10:14:43;12.50;99.90
9215;DHT22;4642;51.364;6.788;2023-04-15T10:17:10;12.50;99.90
9215;DHT22;4642;51.364;6.788;2023-04-15T10:19:37;12.40;99.90
9215;DHT22;4642;51.364;6.788;2023-04-15T10:22:03;12.50;99.90
9215;DHT22;4642;51.364;6.788;2023-04-15T10:24:32;12.50;99.90
9215;DHT22;4642;51.364;6.788;2023-04-15T10:26:59;12.60;99.90
9215;DHT22;4642;51.364;6.788;2023-04-15T10:29:25;12.60;99.90
9215;DHT22;4642;51.364;6.788;2023-04-15T10:31:54;12.60;99.90
9215;DHT22;4642;51.364;6.788;2023-04-15T10:34:21;12.40;99.90
9215;DHT22;4642;51.364;6.788;2023-04-15T10:36:48;12.40;99.90
9215;DHT22;4642;51.364;6.788;2023-04-15T10:42:11;12.30;99.90
9215;DHT22;4642;51.364;6.788;2023-04-15T10:44:38;12.30;99.90
9215;DHT22;4642;51.364;6.788;2023-04-15T10:47:12;12.40;99.90
9215;DHT22;4642;51.364;6.788;2023-04-15T10:49:45;12.20;99.90
9215;DHT22;4642;51.364;6.788;2023-04-15T10:52:12;12.10;99.90
9215;DHT22;4642;51.364;6.788;2023-04-15T10:54:38;12.20;99.90
9215;DHT22;4642;51.364;6.788;2023-04-15T11:02:47;12.10;99.90
9215;DHT22;4642;51.364;6.788;2023-04-15T11:05:14;12.10;99.90
9215;DHT22;4642;51.364;6.788;2023-04-15T11:07:47;12.10;99.90
9215;DHT22;4642;51.364;6.788;2023-04-15T11:12:42;12.00;99.90
9215;DHT22;4642;51.364;6.788;2023-04-15T11:15:33;12.00;99.90
9215;DHT22;4642;51.364;6.788;2023-04-15T11:20:43;12.10;99.90
9215;DHT22;4642;51.364;6.788;2023-04-15T11:23:12;12.10;99.90
9215;DHT22;4642;51.364;6.788;2023-04-15T11:25:38;12.20;99.90
9215;DHT22;4642;51.364;6.788;2023-04-15T11:28:04;12.20;99.90
9215;DHT22;4642;51.364;6.788;2023-04-15T11:30:35;12.30;99.90
9215;DHT22;4642;51.364;6.788;2023-04-15T11:33:11;12.40;99.90
9215;DHT22;4642;51.364;6.788;2023-04-15T11:35:40;12.20;99.90
9215;DHT22;4642;51.364;6.788;2023-04-15T11:38:11;12.30;99.90
9215;DHT22;4642;51.364;6.788;2023-04-15T11:40:38;12.30;99.90
9215;DHT22;4642;51.364;6.788;2023-04-15T11:43:14;12.30;99.90
9215;DHT22;4642;51.364;6.788;2023-04-15T11:45:58;12.30;99.90
9215;DHT22;4642;51.364;6.788;2023-04-15T11:48:26;12.40;99.90
9215;DHT22;4642;51.364;6.788;2023-04-15T11:50:59;12.40;99.90
9215;DHT22;4642;51.364;6.788;2023-04-15T11:53:43;12.20;99.90
9215;DHT22;4642;51.364;6.788;2023-04-15T11:56:10;12.30;99.90
9215;DHT22;4642;51.364;6.788;2023-04-15T11:58:36;12.30;99.90
9215;DHT22;4642;51.364;6.788;2023-04-15T12:01:03;12.40;99.90
9215;DHT22;4642;51.364;6.788;2023-04-15T12:03:40;12.40;99.90
9215;DHT22;4642;51.364;6.788;2023-04-15T12:16:38;12.20;99.90
9215;DHT22;4642;51.364;6.788;2023-04-15T12:19:08;12.20;99.90
9215;DHT22;4642;51.364;6.788;2023-04-15T12:21:36;12.30;99.90
9215;DHT22;4642;51.364;6.788;2023-04-15T12:24:04;12.40;99.90
9215;DHT22;4642;51.364;6.788;2023-04-15T12:26:41;12.40;99.90
9215;DHT22;4642;51.364;6.788;2023-04-15T12:29:07;12.30;99.90
9215;DHT22;4642;51.364;6.788;2023-04-15T12:31:34;12.30;99.90
9215;DHT22;4642;51.364;6.788;2023-04-15T12:34:01;12.20;99.90
9215;DHT22;4642;51.364;6.788;2023-04-15T12:36:28;12.20;99.90
9215;DHT22;4642;51.364;6.788;2023-04-15T12:38:56;12.00;99.90
9215;DHT22;4642;51.364;6.788;2023-04-15T12:41:21;12.10;99.90
9215;DHT22;4642;51.364;6.788;2023-04-15T12:43:48;12.00;99.90
9215;DHT22;4642;51.364;6.788;2023-04-15T12:46:14;12.00;99.90
9215;DHT22;4642;51.364;6.788;2023-04-15T12:48:40;12.00;99.90
9215;DHT22;4642;51.364;6.788;2023-04-15T12:51:06;12.00;99.90
9215;DHT22;4642;51.364;6.788;2023-04-15T12:53:31;12.00;99.90
9215;DHT22;4642;51.364;6.788;2023-04-15T12:55:57;12.00;99.90
9215;DHT22;4642;51.364;6.788;2023-04-15T12:58:22;12.00;99.90
9215;DHT22;4642;51.364;6.788;2023-04-15T13:00:48;11.90;99.90
9215;DHT22;4642;51.364;6.788;2023-04-15T13:03:14;11.90;99.90
9215;DHT22;4642;51.364;6.788;2023-04-15T13:05:40;11.90;99.90
9215;DHT22;4642;51.364;6.788;2023-04-15T13:08:06;11.90;99.90
9215;DHT22;4642;51.364;6.788;2023-04-15T13:10:32;11.90;99.90
9215;DHT22;4642;51.364;6.788;2023-04-15T13:12:58;11.90;99.90
9215;DHT22;4642;51.364;6.788;2023-04-15T13:15:23;11.90;99.90
9215;DHT22;4642;51.364;6.788;2023-04-15T13:17:50;11.80;99.90
9215;DHT22;4642;51.364;6.788;2023-04-15T13:20:16;11.80;99.90
9215;DHT22;4642;51.364;6.788;2023-04-15T13:22:41;11.80;99.90
9215;DHT22;4642;51.364;6.788;2023-04-15T13:25:07;11.80;99.90
9215;DHT22;4642;51.364;6.788;2023-04-15T13:27:33;11.70;99.90
9215;DHT22;4642;51.364;6.788;2023-04-15T13:29:59;11.70;99.90
9215;DHT22;4642;51.364;6.788;2023-04-15T13:32:25;11.70;99.90
9215;DHT22;4642;51.364;6.788;2023-04-15T13:34:50;11.70;99.90
9215;DHT22;4642;51.364;6.788;2023-04-15T13:37:16;11.70;99.90
9215;DHT22;4642;51.364;6.788;2023-04-15T13:39:42;11.70;99.90
9215;DHT22;4642;51.364;6.788;2023-04-15T13:42:08;11.70;99.90
9215;DHT22;4642;51.364;6.788;2023-04-15T13:44:34;11.60;99.90
9215;DHT22;4642;51.364;6.788;2023-04-15T13:47:00;11.60;99.90
9215;DHT22;4642;51.364;6.788;2023-04-15T13:49:25;11.50;99.90
9215;DHT22;4642;51.364;6.788;2023-04-15T13:51:51;11.50;99.90
9215;DHT22;4642;51.364;6.788;2023-04-15T13:54:16;11.40;99.90
9215;DHT22;4642;51.364;6.788;2023-04-15T13:56:42;11.50;99.90
9215;DHT22;4642;51.364;6.788;2023-04-15T13:59:07;11.50;99.90
9215;DHT22;4642;51.364;6.788;2023-04-15T14:01:34;11.50;99.90
9215;DHT22;4642;51.364;6.788;2023-04-15T14:04:00;11.50;99.90
9215;DHT22;4642;51.364;6.788;2023-04-15T14:06:26;11.50;99.90
9215;DHT22;4642;51.364;6.788;2023-04-15T14:08:52;11.40;99.90
9215;DHT22;4642;51.364;6.788;2023-04-15T14:11:17;11.40;99.90
9215;DHT22;4642;51.364;6.788;2023-04-15T14:13:43;11.50;99.90
9215;DHT22;4642;51.364;6.788;2023-04-15T14:16:09;11.60;99.90
9215;DHT22;4642;51.364;6.788;2023-04-15T14:18:34;11.60;99.90
9215;DHT22;4642;51.364;6.788;2023-04-15T14:21:01;11.50;99.90
9215;DHT22;4642;51.364;6.788;2023-04-15T14:23:27;11.50;99.90
9215;DHT22;4642;51.364;6.788;2023-04-15T14:25:53;11.50;99.90
9215;DHT22;4642;51.364;6.788;2023-04-15T14:28:19;11.40;99.90
9215;DHT22;4642;51.364;6.788;2023-04-15T14:30:44;11.40;99.90
9215;DHT22;4642;51.364;6.788;2023-04-15T14:33:10;11.40;99.90
9215;DHT22;4642;51.364;6.788;2023-04-15T14:35:36;11.40;99.90
9215;DHT22;4642;51.364;6.788;2023-04-15T14:38:02;11.30;99.90
9215;DHT22;4642;51.364;6.788;2023-04-15T14:40:27;11.30;99.90
9215;DHT22;4642;51.364;6.788;2023-04-15T14:42:53;11.30;99.90
9215;DHT22;4642;51.364;6.788;2023-04-15T14:45:18;11.30;99.90
9215;DHT22;4642;51.364;6.788;2023-04-15T14:47:44;11.30;99.90
9215;DHT22;4642;51.364;6.788;2023-04-15T14:50:09;11.30;99.90
9215;DHT22;4642;51.364;6.788;2023-04-15T14:52:35;11.30;99.90
9215;DHT22;4642;51.364;6.788;2023-04-15T14:55:05;11.30;99.90
9215;DHT22;4642;51.364;6.788;2023-04-15T14:57:31;11.30;99.90
9215;DHT22;4642;51.364;6.788;2023-04-15T14:59:57;11.20;99.90
9215;DHT22;4642;51.364;6.788;2023-04-15T15:02:23;11.10;99.90
9215;DHT22;4642;51.364;6.788;2023-04-15T15:04:49;11.10;99.90
9215;DHT22;4642;51.364;6.788;2023-04-15T15:07:15;11.10;99.90
9215;DHT22;4642;51.364;6.788;2023-04-15T15:09:40;11.00;99.90
9215;DHT22;4642;51.364;6.788;2023-04-15T15:12:06;11.00;99.90
9215;DHT22;4642;51.364;6.788;2023-04-15T15:14:32;10.90;99.90
9215;DHT22;4642;51.364;6.788;2023-04-15T15:16:58;11.00;99.90
9215;DHT22;4642;51.364;6.788;2023-04-15T15:19:24;10.90;99.90
9215;DHT22;4642;51.364;6.788;2023-04-15T15:21:50;10.80;99.90
9215;DHT22;4642;51.364;6.788;2023-04-15T15:24:15;10.80;99.90
9215;DHT22;4642;51.364;6.788;2023-04-15T15:26:41;10.80;99.90
9215;DHT22;4642;51.364;6.788;2023-04-15T15:29:06;10.80;99.90
9215;DHT22;4642;51.364;6.788;2023-04-15T15:31:34;10.80;99.90
9215;DHT22;4642;51.364;6.788;2023-04-15T15:34:00;10.80;99.90
9215;DHT22;4642;51.364;6.788;2023-04-15T15:36:25;10.80;99.90
9215;DHT22;4642;51.364;6.788;2023-04-15T15:38:54;10.70;99.90
9215;DHT22;4642;51.364;6.788;2023-04-15T15:41:19;10.70;99.90
9215;DHT22;4642;51.364;6.788;2023-04-15T15:43:45;10.70;99.90
9215;DHT22;4642;51.364;6.788;2023-04-15T15:46:11;10.60;99.90
9215;DHT22;4642;51.364;6.788;2023-04-15T15:48:36;10.60;99.90
9215;DHT22;4642;51.364;6.788;2023-04-15T15:51:02;10.60;99.90
9215;DHT22;4642;51.364;6.788;2023-04-15T15:53:28;10.50;99.90
9215;DHT22;4642;51.364;6.788;2023-04-15T15:55:54;10.50;99.90
9215;DHT22;4642;51.364;6.788;2023-04-15T15:58:19;10.50;99.90
9215;DHT22;4642;51.364;6.788;2023-04-15T16:00:45;10.40;99.90
9215;DHT22;4642;51.364;6.788;2023-04-15T16:03:10;10.40;99.90
9215;DHT22;4642;51.364;6.788;2023-04-15T16:05:36;10.40;99.90
9215;DHT22;4642;51.364;6.788;2023-04-15T16:08:02;10.30;99.90
9215;DHT22;4642;51.364;6.788;2023-04-15T16:10:28;10.30;99.90
9215;DHT22;4642;51.364;6.788;2023-04-15T16:12:54;10.40;99.90
9215;DHT22;4642;51.364;6.788;2023-04-15T16:15:20;10.30;99.90
9215;DHT22;4642;51.364;6.788;2023-04-15T16:17:46;10.20;99.90
9215;DHT22;4642;51.364;6.788;2023-04-15T16:20:12;10.10;99.90
9215;DHT22;4642;51.364;6.788;2023-04-15T16:22:37;10.10;99.90
9215;DHT22;4642;51.364;6.788;2023-04-15T16:25:03;10.10;99.90
9215;DHT22;4642;51.364;6.788;2023-04-15T16:27:29;10.10;99.90
9215;DHT22;4642;51.364;6.788;2023-04-15T16:29:54;10.00;99.90
9215;DHT22;4642;51.364;6.788;2023-04-15T16:32:20;10.00;99.90